createdAt,value
2019-03-25T00:02:04.646Z,96203.53
2019-03-25T00:04:30.867Z,96199.59
2019-03-25T00:06:57.420Z,96198.41
2019-03-25T00:09:23.844Z,96200.09
2019-03-25T00:11:50.056Z,96200.70
2019-03-25T00:14:16.224Z,96195.23
2019-03-25T00:16:42.498Z,96193.42
2019-03-25T00:19:08.847Z,96186.31
2019-03-25T00:21:35.031Z,96189.28
2019-03-25T00:24:01.314Z,96189.20
2019-03-25T00:26:27.490Z,96180.61
2019-03-25T00:28:53.668Z,96183.81
2019-03-25T00:31:19.821Z,96172.87
2019-03-25T00:33:46.069Z,96180.80
2019-03-25T00:36:12.325Z,96176.61
2019-03-25T00:38:38.522Z,96176.06
2019-03-25T00:41:04.802Z,96171.20
2019-03-25T00:43:30.974Z,96165.24
2019-03-25T00:45:57.379Z,96163.22
2019-03-25T00:48:23.584Z,96170.02
2019-03-25T00:50:49.716Z,96161.09
2019-03-25T00:53:15.964Z,96160.38
2019-03-25T00:55:42.123Z,96154.21
2019-03-25T00:58:08.276Z,96149.09
2019-03-25T01:00:34.938Z,96147.45
2019-03-25T01:03:01.118Z,96150.37
2019-03-25T01:05:27.390Z,96150.75
2019-03-25T01:07:53.642Z,96152.33
2019-03-25T01:10:19.805Z,96144.84
2019-03-25T01:12:46.075Z,96139.84
2019-03-25T01:15:12.396Z,96147.84
2019-03-25T01:17:38.635Z,96141.21
2019-03-25T01:20:05.692Z,96142.56
2019-03-25T01:22:31.798Z,96142.45
2019-03-25T01:25:01.989Z,96138.89
2019-03-25T01:27:26.048Z,96136.30
2019-03-25T01:29:52.272Z,96135.97
2019-03-25T01:32:18.507Z,96138.34
2019-03-25T01:34:44.709Z,96133.60
2019-03-25T01:37:10.982Z,96134.10
2019-03-25T01:39:37.188Z,96133.20
2019-03-25T01:42:03.293Z,96133.11
2019-03-25T01:44:29.515Z,96135.88
2019-03-25T01:46:55.683Z,96127.77
2019-03-25T01:49:21.850Z,96126.23
2019-03-25T01:51:48.100Z,96120.16
2019-03-25T01:54:14.263Z,96121.24
2019-03-25T01:56:40.434Z,96116.84
2019-03-25T01:59:06.689Z,96118.42
2019-03-25T02:01:32.927Z,96119.04
2019-03-25T02:03:59.074Z,96114.41
2019-03-25T02:06:25.311Z,96100.04
2019-03-25T02:08:51.427Z,96102.67
2019-03-25T02:11:17.643Z,96103.04
2019-03-25T02:13:43.800Z,96098.98
2019-03-25T02:16:10.036Z,96091.97
2019-03-25T02:18:36.155Z,96090.30
2019-03-25T02:21:03.931Z,96083.63
2019-03-25T02:23:30.045Z,96077.06
2019-03-25T02:25:56.301Z,96074.57
2019-03-25T02:28:22.729Z,96072.92
2019-03-25T02:30:48.963Z,96067.06
2019-03-25T02:33:15.163Z,96066.25
2019-03-25T02:35:41.461Z,96066.03
2019-03-25T02:38:07.867Z,96059.11
2019-03-25T02:40:34.118Z,96058.64
2019-03-25T02:43:00.394Z,96049.26
2019-03-25T02:45:26.781Z,96046.52
2019-03-25T02:47:53.071Z,96046.52
2019-03-25T02:50:19.298Z,96038.16
2019-03-25T02:52:45.519Z,96043.06
2019-03-25T02:55:11.873Z,96030.69
2019-03-25T02:57:38.157Z,96032.73
2019-03-25T03:00:06.461Z,96036.53
2019-03-25T03:02:32.897Z,96032.14
2019-03-25T03:04:59.038Z,96024.31
2019-03-25T03:07:25.259Z,96017.05
2019-03-25T03:09:51.466Z,96016.83
2019-03-25T03:12:17.701Z,96006.35
2019-03-25T03:14:43.829Z,96008.16
2019-03-25T03:17:11.161Z,96005.19
2019-03-25T03:19:37.269Z,96004.37
2019-03-25T03:22:03.496Z,95999.60
2019-03-25T03:24:29.639Z,96003.52
2019-03-25T03:26:55.892Z,95999.23
2019-03-25T03:29:22.056Z,96000.67
2019-03-25T03:31:48.281Z,95991.05
2019-03-25T03:34:14.463Z,95994.27
2019-03-25T03:36:40.715Z,95991.43
2019-03-25T03:39:07.112Z,95997.25
2019-03-25T03:41:33.384Z,95981.55
2019-03-25T03:44:00.799Z,95985.48
2019-03-25T03:46:27.275Z,95978.72
2019-03-25T03:48:54.516Z,95975.26
2019-03-25T03:51:21.623Z,95977.29
2019-03-25T03:53:48.128Z,95974.42
2019-03-25T03:56:16.158Z,95967.06
2019-03-25T03:58:42.473Z,95969.69
2019-03-25T04:01:08.720Z,95959.47
2019-03-25T04:03:35.268Z,95957.78
2019-03-25T04:06:01.533Z,95956.49
2019-03-25T04:08:27.923Z,95951.52
2019-03-25T04:10:54.184Z,95947.84
2019-03-25T04:13:20.345Z,95943.32
2019-03-25T04:15:46.735Z,95933.61
2019-03-25T04:18:12.998Z,95938.23
2019-03-25T04:20:39.115Z,95945.35
2019-03-25T04:23:05.342Z,95943.59
2019-03-25T04:25:31.477Z,95944.17
2019-03-25T04:27:57.716Z,95936.94
2019-03-25T04:30:24.290Z,95946.67
2019-03-25T04:32:50.430Z,95935.86
2019-03-25T04:35:16.662Z,95937.28
2019-03-25T04:37:43.050Z,95937.06
2019-03-25T04:40:09.369Z,95935.26
2019-03-25T04:42:36.692Z,95939.55
2019-03-25T04:45:05.613Z,95941.55
2019-03-25T04:47:32.140Z,95940.85
2019-03-25T04:49:58.433Z,95941.80
2019-03-25T04:52:24.660Z,95942.27
2019-03-25T04:54:50.832Z,95947.38
2019-03-25T04:57:17.102Z,95935.73
2019-03-25T04:59:43.339Z,95932.31
2019-03-25T05:02:09.461Z,95939.77
2019-03-25T05:04:35.816Z,95940.85
2019-03-25T05:07:02.002Z,95943.47
2019-03-25T05:09:28.336Z,95933.25
2019-03-25T05:11:54.608Z,95940.36
2019-03-25T05:14:21.021Z,95946.09
2019-03-25T05:16:47.222Z,95934.34
2019-03-25T05:19:13.350Z,95928.05
2019-03-25T05:21:39.690Z,95931.47
2019-03-25T05:24:05.809Z,95932.19
2019-03-25T05:26:32.047Z,95915.80
2019-03-25T05:28:58.228Z,95914.98
2019-03-25T05:31:25.594Z,95900.96
2019-03-25T05:33:51.777Z,95897.05
2019-03-25T05:36:18.006Z,95893.59
2019-03-25T05:38:44.134Z,95887.18
2019-03-25T05:41:10.394Z,95880.65
2019-03-25T05:43:36.583Z,95875.20
2019-03-25T05:46:02.879Z,95848.84
2019-03-25T05:48:29.188Z,95842.08
2019-03-25T05:50:56.432Z,95827.95
2019-03-25T05:53:22.880Z,95813.72
2019-03-25T05:55:49.068Z,95802.09
2019-03-25T05:58:15.359Z,95810.87
2019-03-25T06:00:41.848Z,95802.57
2019-03-25T06:03:08.013Z,95801.95
2019-03-25T06:05:34.199Z,95811.47
2019-03-25T06:08:00.358Z,95832.58
2019-03-25T06:10:26.548Z,95854.05
2019-03-25T06:12:52.728Z,95842.88
2019-03-25T06:15:19.029Z,95854.37
2019-03-25T06:17:45.212Z,95844.59
2019-03-25T06:20:11.988Z,95852.91
2019-03-25T06:22:38.178Z,95851.23
2019-03-25T06:25:05.744Z,95853.73
2019-03-25T06:27:31.979Z,95830.33
2019-03-25T06:29:58.241Z,95837.20
2019-03-25T06:32:24.472Z,95827.71
2019-03-25T06:34:50.587Z,95827.83
2019-03-25T06:37:16.817Z,95826.75
2019-03-25T06:39:42.935Z,95824.50
2019-03-25T06:42:09.182Z,95825.59
2019-03-25T06:44:35.356Z,95822.02
2019-03-25T06:47:01.659Z,95827.36
2019-03-25T06:49:27.851Z,95819.03
2019-03-25T06:51:55.165Z,95813.55
2019-03-25T06:54:21.379Z,95811.28
2019-03-25T06:56:47.639Z,95804.71
2019-03-25T06:59:13.817Z,95808.97
2019-03-25T07:01:40.099Z,95811.47
2019-03-25T07:04:06.437Z,95814.58
2019-03-25T07:06:32.562Z,95816.35
2019-03-25T07:08:58.785Z,95811.34
2019-03-25T07:11:24.950Z,95821.80
2019-03-25T07:13:51.383Z,95817.50
2019-03-25T07:16:17.515Z,95815.77
2019-03-25T07:18:43.751Z,95812.18
2019-03-25T07:21:09.982Z,95805.30
2019-03-25T07:23:36.234Z,95814.45
2019-03-25T07:26:02.500Z,95808.85
2019-03-25T07:28:28.801Z,95807.11
2019-03-25T07:30:55.038Z,95818.03
2019-03-25T07:33:21.229Z,95819.86
2019-03-25T07:35:47.708Z,95814.94
2019-03-25T07:38:13.966Z,95806.84
2019-03-25T07:40:40.090Z,95816.46
2019-03-25T07:43:06.335Z,95830.25
2019-03-25T07:45:32.502Z,95828.59
2019-03-25T07:47:58.715Z,95816.83
2019-03-25T07:50:25.005Z,95808.05
2019-03-25T07:52:51.388Z,95810.20
2019-03-25T07:55:17.633Z,95816.95
2019-03-25T07:57:48.436Z,95814.34
2019-03-25T08:00:15.668Z,95812.10
2019-03-25T08:02:41.974Z,95810.22
2019-03-25T08:05:08.331Z,95812.38
2019-03-25T08:07:34.502Z,95804.67
2019-03-25T08:10:00.668Z,95806.25
2019-03-25T08:12:26.995Z,95810.14
2019-03-25T08:14:53.142Z,95816.57
2019-03-25T08:17:19.411Z,95804.69
2019-03-25T08:19:45.656Z,95812.16
2019-03-25T08:22:11.882Z,95804.80
2019-03-25T08:24:38.032Z,95811.80
2019-03-25T08:27:04.368Z,95801.11
2019-03-25T08:29:30.569Z,95814.86
2019-03-25T08:31:58.915Z,95815.59
2019-03-25T08:34:25.061Z,95814.42
2019-03-25T08:36:51.271Z,95812.75
2019-03-25T08:39:17.483Z,95821.68
2019-03-25T08:41:43.796Z,95842.91
2019-03-25T08:44:10.072Z,95832.72
2019-03-25T08:46:36.370Z,95833.06
2019-03-25T08:49:02.802Z,95839.94
2019-03-25T08:51:28.995Z,95840.05
2019-03-25T08:53:55.298Z,95842.08
2019-03-25T08:56:21.583Z,95849.91
2019-03-25T08:58:47.779Z,95847.53
2019-03-25T09:01:14.000Z,95850.64
2019-03-25T09:03:40.167Z,95843.27
2019-03-25T09:06:06.694Z,95857.16
2019-03-25T09:08:32.811Z,95857.75
2019-03-25T09:10:59.273Z,95860.36
2019-03-25T09:13:25.545Z,95863.58
2019-03-25T09:15:51.992Z,95858.58
2019-03-25T09:18:18.149Z,95868.44
2019-03-25T09:20:44.408Z,95868.44
2019-03-25T09:23:10.711Z,95870.92
2019-03-25T09:25:36.968Z,95862.12
2019-03-25T09:28:03.395Z,95882.90
2019-03-25T09:30:50.470Z,95877.17
2019-03-25T09:33:16.843Z,95874.07
2019-03-25T09:35:43.096Z,95880.41
2019-03-25T09:38:09.623Z,95870.65
2019-03-25T09:40:35.972Z,95872.05
2019-03-25T09:43:02.265Z,95873.23
2019-03-25T09:45:28.603Z,95868.88
2019-03-25T09:47:54.790Z,95881.13
2019-03-25T09:50:21.094Z,95880.41
2019-03-25T09:52:47.422Z,95884.68
2019-03-25T09:55:16.472Z,95873.11
2019-03-25T09:57:42.033Z,95881.14
2019-03-25T10:00:09.925Z,95878.09
2019-03-25T10:02:36.510Z,95878.39
2019-03-25T10:05:04.112Z,95881.48
2019-03-25T10:07:30.523Z,95868.41
2019-03-25T10:09:56.676Z,95877.69
2019-03-25T10:12:23.531Z,95870.81
2019-03-25T10:14:49.664Z,95876.21
2019-03-25T10:17:15.975Z,95882.97
2019-03-25T10:19:42.097Z,95877.52
2019-03-25T10:22:08.339Z,95878.95
2019-03-25T10:24:34.526Z,95882.58
2019-03-25T10:27:00.810Z,95883.47
2019-03-25T10:29:27.022Z,95885.29
2019-03-25T10:31:53.243Z,95879.08
2019-03-25T10:34:19.739Z,95886.26
2019-03-25T10:36:46.006Z,95874.65
2019-03-25T10:39:12.332Z,95879.20
2019-03-25T10:41:38.676Z,95876.23
2019-03-25T10:44:05.220Z,95871.52
2019-03-25T10:46:31.336Z,95870.37
2019-03-25T10:48:57.800Z,95864.67
2019-03-25T10:51:23.942Z,95869.21
2019-03-25T10:53:50.273Z,95876.94
2019-03-25T10:56:16.550Z,95868.13
2019-03-25T10:58:43.033Z,95864.47
2019-03-25T11:01:09.654Z,95873.24
2019-03-25T11:03:36.043Z,95873.20
2019-03-25T11:06:02.273Z,95867.69
2019-03-25T11:08:28.508Z,95868.09
2019-03-25T11:10:54.888Z,95872.65
2019-03-25T11:13:21.298Z,95868.28
2019-03-25T11:15:47.425Z,95866.97
2019-03-25T11:18:13.650Z,95863.83
2019-03-25T11:20:39.806Z,95871.67
2019-03-25T11:23:06.079Z,95867.83
2019-03-25T11:25:32.248Z,95868.44
2019-03-25T11:27:58.493Z,95869.52
2019-03-25T11:30:46.583Z,95866.55
2019-03-25T11:33:12.838Z,95877.95
2019-03-25T11:35:38.951Z,95868.84
2019-03-25T11:38:05.292Z,95875.06
2019-03-25T11:40:31.423Z,95869.67
2019-03-25T11:42:57.885Z,95877.14
2019-03-25T11:45:24.271Z,95860.03
2019-03-25T11:47:50.516Z,95864.67
2019-03-25T11:50:16.846Z,95861.83
2019-03-25T11:52:44.980Z,95852.26
2019-03-25T11:55:11.103Z,95848.41
2019-03-25T11:57:37.551Z,95857.74
2019-03-25T12:00:08.609Z,95848.58
2019-03-25T12:02:34.881Z,95849.35
2019-03-25T12:05:01.195Z,95840.95
2019-03-25T12:07:27.464Z,95838.55
2019-03-25T12:09:53.727Z,95847.15
2019-03-25T12:12:20.227Z,95846.48
2019-03-25T12:14:46.534Z,95843.80
2019-03-25T12:17:13.020Z,95839.19
2019-03-25T12:19:39.577Z,95835.27
2019-03-25T12:22:05.692Z,95838.14
2019-03-25T12:24:31.937Z,95834.47
2019-03-25T12:26:58.138Z,95826.62
2019-03-25T12:29:30.206Z,95826.65
2019-03-25T12:31:52.577Z,95824.03
2019-03-25T12:34:18.835Z,95814.52
2019-03-25T12:36:45.316Z,95809.52
2019-03-25T12:39:11.495Z,95811.77
2019-03-25T12:41:37.962Z,95801.23
2019-03-25T12:44:04.262Z,95802.26
2019-03-25T12:46:30.506Z,95799.28
2019-03-25T12:48:56.673Z,95808.13
2019-03-25T12:51:23.269Z,95808.31
2019-03-25T12:53:49.575Z,95813.05
2019-03-25T12:56:15.856Z,95801.74
2019-03-25T12:58:42.137Z,95795.34
2019-03-25T13:01:08.520Z,95794.25
2019-03-25T13:03:34.850Z,95798.77
2019-03-25T13:06:01.188Z,95793.04
2019-03-25T13:08:33.036Z,95789.30
2019-03-25T13:10:55.737Z,95791.90
2019-03-25T13:13:22.070Z,95784.28
2019-03-25T13:15:48.296Z,95793.64
2019-03-25T13:18:14.539Z,95791.02
2019-03-25T13:20:40.649Z,95806.77
2019-03-25T13:23:06.990Z,95789.02
2019-03-25T13:25:33.187Z,95789.45
2019-03-25T13:27:59.570Z,95795.96
2019-03-25T13:30:25.790Z,95793.21
2019-03-25T13:32:52.016Z,95779.09
2019-03-25T13:35:18.230Z,95798.30
2019-03-25T13:37:44.454Z,95788.78
2019-03-25T13:40:12.291Z,95788.91
2019-03-25T13:42:38.542Z,95801.31
2019-03-25T13:45:05.166Z,95789.39
2019-03-25T13:47:31.402Z,95805.78
2019-03-25T13:49:57.867Z,95833.86
2019-03-25T13:52:24.112Z,95857.59
2019-03-25T13:54:50.682Z,95861.45
2019-03-25T13:57:17.147Z,95881.91
2019-03-25T13:59:43.426Z,95891.00
2019-03-25T14:02:09.654Z,95903.46
2019-03-25T14:04:35.764Z,95904.41
2019-03-25T14:07:03.899Z,95910.54
2019-03-25T14:09:30.375Z,95914.20
2019-03-25T14:11:56.725Z,95917.80
2019-03-25T14:14:23.157Z,95914.13
2019-03-25T14:16:49.388Z,95913.19
2019-03-25T14:19:15.538Z,95917.24
2019-03-25T14:21:41.776Z,95917.83
2019-03-25T14:24:07.956Z,95917.57
2019-03-25T14:26:34.192Z,95916.99
2019-03-25T14:29:00.332Z,95920.41
2019-03-25T14:31:26.560Z,95921.14
2019-03-25T14:33:52.674Z,95911.30
2019-03-25T14:36:18.959Z,95906.41
2019-03-25T14:38:45.276Z,95908.09
2019-03-25T14:41:11.575Z,95904.98
2019-03-25T14:43:38.580Z,95904.28
2019-03-25T14:46:06.979Z,95911.28
2019-03-25T14:48:33.958Z,95905.81
2019-03-25T14:51:00.265Z,95906.86
2019-03-25T14:53:26.535Z,95910.30
2019-03-25T14:55:52.747Z,95919.20
2019-03-25T14:58:18.983Z,95918.50
2019-03-25T15:00:45.119Z,95913.97
2019-03-25T15:03:12.608Z,95912.91
2019-03-25T15:05:38.732Z,95922.41
2019-03-25T15:08:05.076Z,95930.10
2019-03-25T15:10:31.304Z,95924.95
2019-03-25T15:12:57.876Z,95919.47
2019-03-25T15:15:23.998Z,95926.05
2019-03-25T15:17:50.240Z,95923.91
2019-03-25T15:20:16.487Z,95924.54
2019-03-25T15:22:42.787Z,95926.61
2019-03-25T15:25:09.219Z,95944.55
2019-03-25T15:27:36.765Z,95951.19
2019-03-25T15:30:06.645Z,95951.63
2019-03-25T15:32:32.876Z,95970.38
2019-03-25T15:34:59.013Z,95971.86
2019-03-25T15:37:25.240Z,95982.58
2019-03-25T15:39:51.662Z,95980.63
2019-03-25T15:42:18.116Z,95988.66
2019-03-25T15:44:44.401Z,95985.66
2019-03-25T15:47:10.821Z,95992.97
2019-03-25T15:49:36.946Z,95994.14
2019-03-25T15:52:03.468Z,95993.41
2019-03-25T15:54:29.670Z,95995.98
2019-03-25T15:56:56.358Z,95999.55
2019-03-25T15:59:22.626Z,95991.97
2019-03-25T16:01:48.991Z,95993.92
2019-03-25T16:04:15.247Z,96004.02
2019-03-25T16:06:41.430Z,96005.78
2019-03-25T16:09:07.850Z,96001.52
2019-03-25T16:11:34.086Z,96006.95
2019-03-25T16:14:00.239Z,96020.95
2019-03-25T16:16:26.463Z,96024.86
2019-03-25T16:18:52.800Z,96032.52
2019-03-25T16:21:19.067Z,96030.97
2019-03-25T16:23:45.275Z,96036.52
2019-03-25T16:26:11.516Z,96040.95
2019-03-25T16:28:37.815Z,96042.48
2019-03-25T16:31:04.693Z,96040.82
2019-03-25T16:33:30.946Z,96052.66
2019-03-25T16:35:57.538Z,96057.48
2019-03-25T16:38:23.887Z,96053.09
2019-03-25T16:40:50.106Z,96063.97
2019-03-25T16:43:16.444Z,96065.38
2019-03-25T16:45:42.668Z,96067.88
2019-03-25T16:48:08.860Z,96072.67
2019-03-25T16:50:36.263Z,96079.01
2019-03-25T16:53:02.661Z,96077.28
2019-03-25T16:55:28.941Z,96081.82
2019-03-25T16:57:55.315Z,96086.92
2019-03-25T17:00:27.256Z,96089.53
2019-03-25T17:02:50.507Z,96099.02
2019-03-25T17:05:16.873Z,96096.52
2019-03-25T17:07:43.270Z,96099.72
2019-03-25T17:10:10.436Z,96101.94
2019-03-25T17:12:36.779Z,96101.94
2019-03-25T17:15:08.220Z,96107.02
2019-03-25T17:17:35.795Z,96112.09
2019-03-25T17:20:03.790Z,96113.95
2019-03-25T17:22:31.353Z,96116.20
2019-03-25T17:24:57.997Z,96135.02
2019-03-25T17:27:24.166Z,96151.41
2019-03-25T17:29:50.399Z,96147.84
2019-03-25T17:32:16.522Z,96150.81
2019-03-25T17:34:42.744Z,96150.31
2019-03-25T17:37:08.901Z,96155.14
2019-03-25T17:39:36.163Z,96165.63
2019-03-25T17:42:03.325Z,96166.32
2019-03-25T17:44:29.553Z,96169.44
2019-03-25T17:46:55.846Z,96182.98
2019-03-25T17:49:22.109Z,96189.11
2019-03-25T17:51:48.863Z,96195.38
2019-03-25T17:54:15.180Z,96205.05
2019-03-25T17:56:41.396Z,96203.39
2019-03-25T17:59:07.586Z,96212.87
2019-03-25T18:01:34.072Z,96213.81
2019-03-25T18:04:00.485Z,96221.98
2019-03-25T18:06:26.848Z,96228.60
2019-03-25T18:08:53.002Z,96232.61
2019-03-25T18:11:19.276Z,96238.77
2019-03-25T18:13:45.559Z,96240.62
2019-03-25T18:16:12.064Z,96250.69
2019-03-25T18:18:38.329Z,96249.03
2019-03-25T18:21:04.790Z,96250.69
2019-03-25T18:23:30.988Z,96259.91
2019-03-25T18:25:57.406Z,96258.25
2019-03-25T18:28:23.570Z,96265.67
2019-03-25T18:30:49.834Z,96274.89
2019-03-25T18:33:16.174Z,96278.89
2019-03-25T18:35:42.398Z,96278.99
2019-03-25T18:38:08.774Z,96290.72
2019-03-25T18:40:34.893Z,96287.20
2019-03-25T18:43:01.224Z,96296.77
2019-03-25T18:45:27.614Z,96306.34
2019-03-25T18:47:53.991Z,96307.75
2019-03-25T18:50:20.370Z,96312.50
2019-03-25T18:52:46.884Z,96310.34
2019-03-25T18:55:13.119Z,96321.61
2019-03-25T18:57:39.541Z,96331.09
2019-03-25T19:00:06.831Z,96328.78
2019-03-25T19:02:33.286Z,96335.20
2019-03-25T19:04:59.398Z,96336.86
2019-03-25T19:07:25.792Z,96340.67
2019-03-25T19:09:55.337Z,96352.66
2019-03-25T19:12:22.653Z,96355.66
2019-03-25T19:14:48.919Z,96356.56
2019-03-25T19:17:15.217Z,96357.87
2019-03-25T19:19:41.479Z,96364.28
2019-03-25T19:22:07.783Z,96364.77
2019-03-25T19:24:33.953Z,96366.17
2019-03-25T19:27:00.337Z,96367.93
2019-03-25T19:29:26.522Z,96370.53
2019-03-25T19:31:52.806Z,96374.90
2019-03-25T19:34:18.999Z,96386.27
2019-03-25T19:36:45.225Z,96380.59
2019-03-25T19:39:11.530Z,96395.74
2019-03-25T19:41:37.811Z,96401.05
2019-03-25T19:44:04.112Z,96405.34
2019-03-25T19:46:31.445Z,96409.16
2019-03-25T19:48:58.107Z,96408.12
2019-03-25T19:51:24.415Z,96406.36
2019-03-25T19:53:50.579Z,96407.18
2019-03-25T19:56:16.775Z,96406.45
2019-03-25T19:58:44.025Z,96407.77
2019-03-25T20:01:10.263Z,96417.23
2019-03-25T20:03:36.662Z,96417.80
2019-03-25T20:06:03.154Z,96426.55
2019-03-25T20:08:29.335Z,96426.64
2019-03-25T20:10:55.558Z,96429.70
2019-03-25T20:13:21.690Z,96435.12
2019-03-25T20:15:47.920Z,96446.45
2019-03-25T20:18:14.105Z,96449.45
2019-03-25T20:20:40.326Z,96448.34
2019-03-25T20:23:06.621Z,96448.89
2019-03-25T20:25:33.045Z,96455.85
2019-03-25T20:27:59.576Z,96459.67
2019-03-25T20:30:25.901Z,96465.27
2019-03-25T20:32:52.159Z,96459.97
2019-03-25T20:35:20.549Z,96470.20
2019-03-25T20:37:46.957Z,96468.41
2019-03-25T20:40:13.453Z,96468.80
2019-03-25T20:42:39.861Z,96474.73
2019-03-25T20:45:06.913Z,96483.86
2019-03-25T20:47:33.463Z,96485.34
2019-03-25T20:49:59.561Z,96484.70
2019-03-25T20:52:25.849Z,96484.80
2019-03-25T20:54:52.249Z,96487.05
2019-03-25T20:57:18.550Z,96491.22
2019-03-25T20:59:44.763Z,96497.38
2019-03-25T21:02:10.967Z,96511.31
2019-03-25T21:04:37.214Z,96509.55
2019-03-25T21:07:04.465Z,96518.77
2019-03-25T21:09:31.031Z,96524.92
2019-03-25T21:11:57.410Z,96519.80
2019-03-25T21:14:24.038Z,96531.44
2019-03-25T21:16:50.378Z,96530.22
2019-03-25T21:19:16.623Z,96541.64
2019-03-25T21:21:42.834Z,96539.04
2019-03-25T21:24:09.127Z,96545.73
2019-03-25T21:26:35.348Z,96548.55
2019-03-25T21:29:01.656Z,96545.47
2019-03-25T21:31:27.904Z,96547.70
2019-03-25T21:33:54.092Z,96555.34
2019-03-25T21:36:20.348Z,96545.47
2019-03-25T21:38:46.581Z,96557.09
2019-03-25T21:41:12.892Z,96554.03
2019-03-25T21:43:39.149Z,96549.77
2019-03-25T21:46:05.336Z,96559.25
2019-03-25T21:48:32.821Z,96559.34
2019-03-25T21:50:59.060Z,96554.58
2019-03-25T21:53:25.559Z,96561.00
2019-03-25T21:55:52.081Z,96560.28
2019-03-25T21:58:18.522Z,96565.85
2019-03-25T22:00:44.836Z,96566.79
2019-03-25T22:03:12.518Z,96571.61
2019-03-25T22:05:40.002Z,96569.85
2019-03-25T22:08:06.193Z,96571.61
2019-03-25T22:10:32.573Z,96580.27
2019-03-25T22:12:58.801Z,96574.70
2019-03-25T22:15:25.088Z,96579.42
2019-03-25T22:17:51.539Z,96586.78
2019-03-25T22:20:17.808Z,96580.82
2019-03-25T22:22:44.201Z,96582.61
2019-03-25T22:25:11.034Z,96577.40
2019-03-25T22:27:38.270Z,96586.03
2019-03-25T22:30:07.802Z,96588.64
2019-03-25T22:32:33.971Z,96592.55
2019-03-25T22:35:00.442Z,96589.21
2019-03-25T22:37:26.733Z,96599.55
2019-03-25T22:39:52.982Z,96599.06
2019-03-25T22:42:19.098Z,96593.30
2019-03-25T22:44:45.344Z,96600.27
2019-03-25T22:47:11.485Z,96598.52
2019-03-25T22:49:37.818Z,96601.87
2019-03-25T22:52:03.988Z,96607.81
2019-03-25T22:54:30.273Z,96609.52
2019-03-25T22:56:56.394Z,96612.48
2019-03-25T22:59:22.615Z,96615.84
2019-03-25T23:01:48.725Z,96611.18
2019-03-25T23:04:15.076Z,96616.75
2019-03-25T23:06:41.239Z,96614.33
2019-03-25T23:09:08.524Z,96625.05
2019-03-25T23:11:35.341Z,96618.91
2019-03-25T23:14:01.621Z,96617.05
2019-03-25T23:16:27.830Z,96620.97
2019-03-25T23:18:54.058Z,96621.42
2019-03-25T23:21:20.238Z,96627.30
2019-03-25T23:23:46.461Z,96622.00
2019-03-25T23:26:12.638Z,96625.42
2019-03-25T23:28:38.899Z,96636.97
2019-03-25T23:31:05.185Z,96639.58
2019-03-25T23:33:31.683Z,96641.73
2019-03-25T23:36:00.908Z,96642.00
2019-03-25T23:38:27.170Z,96636.78
2019-03-25T23:40:53.300Z,96643.70
2019-03-25T23:43:19.564Z,96645.73
2019-03-25T23:45:45.684Z,96652.16
2019-03-25T23:48:11.996Z,96655.52
2019-03-25T23:50:38.176Z,96654.58
2019-03-25T23:53:04.466Z,96665.67
2019-03-25T23:55:30.718Z,96664.64
2019-03-25T23:57:56.816Z,96664.64
